sensor_id;sensor_type;location;lat;lon;timestamp;P1;durP1;ratioP1;P2;durP2;ratioP2
13592;SDS011;6867;50.998;4.250;2022-10-16T00:01:20;5.80;;;1.30;;
13592;SDS011;6867;50.998;4.250;2022-10-16T00:03:48;3.10;;;1.20;;
13592;SDS011;6867;50.998;4.250;2022-10-16T00:06:16;1.67;;;1.20;;
13592;SDS011;6867;50.998;4.250;2022-10-16T00:08:45;1.37;;;1.10;;
13592;SDS011;6867;50.998;4.250;2022-10-16T00:11:12;2.73;;;1.43;;
13592;SDS011;6867;50.998;4.250;2022-10-16T00:13:43;2.83;;;1.40;;
13592;SDS011;6867;50.998;4.250;2022-10-16T00:16:12;1.40;;;1.30;;
13592;SDS011;6867;50.998;4.250;2022-10-16T00:18:39;1.50;;;1.10;;
13592;SDS011;6867;50.998;4.250;2022-10-16T00:21:07;1.37;;;1.27;;
13592;SDS011;6867;50.998;4.250;2022-10-16T00:23:35;2.07;;;1.00;;
13592;SDS011;6867;50.998;4.250;2022-10-16T00:26:02;1.40;;;1.03;;
13592;SDS011;6867;50.998;4.250;2022-10-16T00:28:31;1.40;;;1.20;;
13592;SDS011;6867;50.998;4.250;2022-10-16T00:31:01;3.13;;;1.10;;
13592;SDS011;6867;50.998;4.250;2022-10-16T00:33:29;2.90;;;1.00;;
13592;SDS011;6867;50.998;4.250;2022-10-16T00:35:57;2.63;;;1.27;;
13592;SDS011;6867;50.998;4.250;2022-10-16T00:38:24;1.40;;;1.30;;
13592;SDS011;6867;50.998;4.250;2022-10-16T00:40:52;1.83;;;1.40;;
13592;SDS011;6867;50.998;4.250;2022-10-16T00:43:32;1.50;;;1.23;;
13592;SDS011;6867;50.998;4.250;2022-10-16T00:46:02;1.20;;;1.07;;
13592;SDS011;6867;50.998;4.250;2022-10-16T00:48:31;1.97;;;1.27;;
13592;SDS011;6867;50.998;4.250;2022-10-16T00:50:57;2.30;;;1.33;;
13592;SDS011;6867;50.998;4.250;2022-10-16T00:53:25;2.23;;;1.20;;
13592;SDS011;6867;50.998;4.250;2022-10-16T00:55:52;2.33;;;1.30;;
13592;SDS011;6867;50.998;4.250;2022-10-16T00:58:19;1.73;;;1.13;;
13592;SDS011;6867;50.998;4.250;2022-10-16T01:00:47;1.90;;;1.17;;
13592;SDS011;6867;50.998;4.250;2022-10-16T01:03:28;6.13;;;1.43;;
13592;SDS011;6867;50.998;4.250;2022-10-16T01:05:59;2.17;;;1.80;;
13592;SDS011;6867;50.998;4.250;2022-10-16T01:08:43;2.00;;;1.30;;
13592;SDS011;6867;50.998;4.250;2022-10-16T01:11:17;2.80;;;1.20;;
13592;SDS011;6867;50.998;4.250;2022-10-16T01:13:51;1.43;;;1.30;;
13592;SDS011;6867;50.998;4.250;2022-10-16T01:16:24;1.77;;;1.57;;
13592;SDS011;6867;50.998;4.250;2022-10-16T01:19:01;1.53;;;1.23;;
13592;SDS011;6867;50.998;4.250;2022-10-16T01:21:36;2.40;;;1.50;;
13592;SDS011;6867;50.998;4.250;2022-10-16T01:24:08;2.67;;;1.50;;
13592;SDS011;6867;50.998;4.250;2022-10-16T01:29:48;2.57;;;1.50;;
13592;SDS011;6867;50.998;4.250;2022-10-16T01:32:19;1.53;;;1.40;;
13592;SDS011;6867;50.998;4.250;2022-10-16T01:34:58;2.20;;;1.40;;
13592;SDS011;6867;50.998;4.250;2022-10-16T01:37:32;1.60;;;1.03;;
13592;SDS011;6867;50.998;4.250;2022-10-16T01:40:03;1.90;;;1.40;;
13592;SDS011;6867;50.998;4.250;2022-10-16T01:42:35;2.67;;;1.30;;
13592;SDS011;6867;50.998;4.250;2022-10-16T01:45:08;3.33;;;1.60;;
13592;SDS011;6867;50.998;4.250;2022-10-16T01:47:38;1.87;;;1.30;;
13592;SDS011;6867;50.998;4.250;2022-10-16T01:50:05;4.53;;;1.70;;
13592;SDS011;6867;50.998;4.250;2022-10-16T01:52:34;2.60;;;1.63;;
13592;SDS011;6867;50.998;4.250;2022-10-16T01:55:04;2.23;;;1.70;;
13592;SDS011;6867;50.998;4.250;2022-10-16T01:57:33;7.23;;;1.70;;
13592;SDS011;6867;50.998;4.250;2022-10-16T02:00:05;2.30;;;1.70;;
13592;SDS011;6867;50.998;4.250;2022-10-16T02:02:36;3.07;;;1.77;;
13592;SDS011;6867;50.998;4.250;2022-10-16T02:05:08;1.87;;;1.60;;
13592;SDS011;6867;50.998;4.250;2022-10-16T02:07:39;2.10;;;1.57;;
13592;SDS011;6867;50.998;4.250;2022-10-16T02:10:07;2.57;;;1.50;;
13592;SDS011;6867;50.998;4.250;2022-10-16T02:12:35;1.97;;;1.67;;
13592;SDS011;6867;50.998;4.250;2022-10-16T02:15:05;2.67;;;1.67;;
13592;SDS011;6867;50.998;4.250;2022-10-16T02:17:33;4.10;;;1.73;;
13592;SDS011;6867;50.998;4.250;2022-10-16T02:20:00;3.17;;;1.67;;
13592;SDS011;6867;50.998;4.250;2022-10-16T02:22:28;2.43;;;2.10;;
13592;SDS011;6867;50.998;4.250;2022-10-16T02:24:59;1.87;;;1.50;;
13592;SDS011;6867;50.998;4.250;2022-10-16T02:27:32;3.93;;;1.40;;
13592;SDS011;6867;50.998;4.250;2022-10-16T02:30:05;5.00;;;2.17;;
13592;SDS011;6867;50.998;4.250;2022-10-16T02:32:39;2.73;;;2.03;;
13592;SDS011;6867;50.998;4.250;2022-10-16T02:35:10;2.13;;;1.67;;
13592;SDS011;6867;50.998;4.250;2022-10-16T02:37:38;2.67;;;1.63;;
13592;SDS011;6867;50.998;4.250;2022-10-16T02:40:07;2.60;;;1.80;;
13592;SDS011;6867;50.998;4.250;2022-10-16T02:42:35;2.07;;;1.63;;
13592;SDS011;6867;50.998;4.250;2022-10-16T02:45:04;1.80;;;1.50;;
13592;SDS011;6867;50.998;4.250;2022-10-16T02:47:32;5.07;;;2.20;;
13592;SDS011;6867;50.998;4.250;2022-10-16T02:50:00;3.27;;;1.90;;
13592;SDS011;6867;50.998;4.250;2022-10-16T02:52:27;3.43;;;2.03;;
13592;SDS011;6867;50.998;4.250;2022-10-16T02:54:53;3.33;;;1.60;;
13592;SDS011;6867;50.998;4.250;2022-10-16T02:57:20;4.23;;;1.93;;
13592;SDS011;6867;50.998;4.250;2022-10-16T02:59:47;3.47;;;2.00;;
13592;SDS011;6867;50.998;4.250;2022-10-16T03:02:13;2.30;;;1.70;;
13592;SDS011;6867;50.998;4.250;2022-10-16T03:04:40;2.60;;;2.00;;
13592;SDS011;6867;50.998;4.250;2022-10-16T03:07:08;5.53;;;2.17;;
13592;SDS011;6867;50.998;4.250;2022-10-16T03:09:35;2.97;;;2.03;;
13592;SDS011;6867;50.998;4.250;2022-10-16T03:12:02;2.67;;;2.03;;
13592;SDS011;6867;50.998;4.250;2022-10-16T03:14:29;2.67;;;2.03;;
13592;SDS011;6867;50.998;4.250;2022-10-16T03:16:55;3.63;;;2.00;;
13592;SDS011;6867;50.998;4.250;2022-10-16T03:19:22;4.43;;;2.00;;
13592;SDS011;6867;50.998;4.250;2022-10-16T03:21:49;3.47;;;2.07;;
13592;SDS011;6867;50.998;4.250;2022-10-16T03:24:17;4.60;;;2.13;;
13592;SDS011;6867;50.998;4.250;2022-10-16T03:26:43;4.10;;;1.73;;
13592;SDS011;6867;50.998;4.250;2022-10-16T03:29:10;6.30;;;2.00;;
13592;SDS011;6867;50.998;4.250;2022-10-16T03:31:37;4.50;;;2.23;;
13592;SDS011;6867;50.998;4.250;2022-10-16T03:34:04;3.13;;;2.00;;
13592;SDS011;6867;50.998;4.250;2022-10-16T03:36:30;2.30;;;1.90;;
13592;SDS011;6867;50.998;4.250;2022-10-16T03:38:57;2.80;;;1.90;;
13592;SDS011;6867;50.998;4.250;2022-10-16T03:41:25;4.47;;;2.53;;
13592;SDS011;6867;50.998;4.250;2022-10-16T03:43:52;2.83;;;2.00;;
13592;SDS011;6867;50.998;4.250;2022-10-16T03:46:18;1.90;;;1.43;;
13592;SDS011;6867;50.998;4.250;2022-10-16T03:48:45;4.23;;;1.93;;
13592;SDS011;6867;50.998;4.250;2022-10-16T03:51:11;5.23;;;1.90;;
13592;SDS011;6867;50.998;4.250;2022-10-16T03:53:38;4.77;;;2.23;;
13592;SDS011;6867;50.998;4.250;2022-10-16T03:56:05;2.33;;;2.10;;
13592;SDS011;6867;50.998;4.250;2022-10-16T03:58:34;3.60;;;1.83;;
13592;SDS011;6867;50.998;4.250;2022-10-16T04:01:00;4.87;;;2.30;;
13592;SDS011;6867;50.998;4.250;2022-10-16T04:03:27;7.07;;;2.30;;
13592;SDS011;6867;50.998;4.250;2022-10-16T04:05:54;3.53;;;1.70;;
13592;SDS011;6867;50.998;4.250;2022-10-16T04:08:21;3.30;;;2.33;;
13592;SDS011;6867;50.998;4.250;2022-10-16T04:10:48;2.20;;;1.70;;
13592;SDS011;6867;50.998;4.250;2022-10-16T04:13:15;2.90;;;2.37;;
13592;SDS011;6867;50.998;4.250;2022-10-16T04:15:43;2.77;;;1.80;;
13592;SDS011;6867;50.998;4.250;2022-10-16T04:18:11;4.17;;;2.20;;
13592;SDS011;6867;50.998;4.250;2022-10-16T04:20:38;2.77;;;2.10;;
13592;SDS011;6867;50.998;4.250;2022-10-16T04:23:04;3.20;;;2.00;;
13592;SDS011;6867;50.998;4.250;2022-10-16T04:25:31;2.80;;;2.27;;
13592;SDS011;6867;50.998;4.250;2022-10-16T04:27:57;7.90;;;2.23;;
13592;SDS011;6867;50.998;4.250;2022-10-16T04:30:24;6.20;;;2.30;;
13592;SDS011;6867;50.998;4.250;2022-10-16T04:32:52;3.53;;;2.23;;
13592;SDS011;6867;50.998;4.250;2022-10-16T04:35:20;2.67;;;1.90;;
13592;SDS011;6867;50.998;4.250;2022-10-16T04:37:47;4.47;;;1.70;;
13592;SDS011;6867;50.998;4.250;2022-10-16T04:40:15;4.00;;;2.40;;
13592;SDS011;6867;50.998;4.250;2022-10-16T04:42:42;3.13;;;2.10;;
13592;SDS011;6867;50.998;4.250;2022-10-16T04:45:09;6.67;;;2.50;;
13592;SDS011;6867;50.998;4.250;2022-10-16T04:47:36;2.60;;;2.10;;
13592;SDS011;6867;50.998;4.250;2022-10-16T04:50:05;3.13;;;2.57;;
13592;SDS011;6867;50.998;4.250;2022-10-16T04:52:32;3.97;;;2.50;;
13592;SDS011;6867;50.998;4.250;2022-10-16T04:54:58;4.47;;;2.40;;
13592;SDS011;6867;50.998;4.250;2022-10-16T04:57:27;3.50;;;2.17;;
13592;SDS011;6867;50.998;4.250;2022-10-16T04:59:54;2.10;;;1.77;;
13592;SDS011;6867;50.998;4.250;2022-10-16T05:02:21;6.00;;;2.40;;
13592;SDS011;6867;50.998;4.250;2022-10-16T05:04:48;6.03;;;4.17;;
13592;SDS011;6867;50.998;4.250;2022-10-16T05:07:16;6.40;;;4.10;;
13592;SDS011;6867;50.998;4.250;2022-10-16T05:09:43;7.27;;;3.80;;
13592;SDS011;6867;50.998;4.250;2022-10-16T05:12:10;4.53;;;3.00;;
13592;SDS011;6867;50.998;4.250;2022-10-16T05:14:36;3.70;;;2.70;;
13592;SDS011;6867;50.998;4.250;2022-10-16T05:17:03;4.67;;;2.30;;
13592;SDS011;6867;50.998;4.250;2022-10-16T05:19:30;2.60;;;2.10;;
13592;SDS011;6867;50.998;4.250;2022-10-16T05:21:56;6.23;;;2.27;;
13592;SDS011;6867;50.998;4.250;2022-10-16T05:24:25;6.37;;;2.30;;
13592;SDS011;6867;50.998;4.250;2022-10-16T05:26:52;5.07;;;2.17;;
13592;SDS011;6867;50.998;4.250;2022-10-16T05:29:19;5.17;;;2.33;;
13592;SDS011;6867;50.998;4.250;2022-10-16T05:31:46;6.87;;;2.63;;
13592;SDS011;6867;50.998;4.250;2022-10-16T05:34:15;5.17;;;2.37;;
13592;SDS011;6867;50.998;4.250;2022-10-16T05:36:45;3.90;;;1.87;;
13592;SDS011;6867;50.998;4.250;2022-10-16T05:39:11;6.63;;;2.00;;
13592;SDS011;6867;50.998;4.250;2022-10-16T05:41:41;4.70;;;2.10;;
13592;SDS011;6867;50.998;4.250;2022-10-16T05:44:08;3.57;;;2.67;;
13592;SDS011;6867;50.998;4.250;2022-10-16T05:46:37;4.47;;;2.30;;
13592;SDS011;6867;50.998;4.250;2022-10-16T05:49:04;5.47;;;2.33;;
13592;SDS011;6867;50.998;4.250;2022-10-16T05:51:31;2.90;;;2.37;;
13592;SDS011;6867;50.998;4.250;2022-10-16T05:53:57;3.70;;;2.50;;
13592;SDS011;6867;50.998;4.250;2022-10-16T05:56:24;2.93;;;2.20;;
13592;SDS011;6867;50.998;4.250;2022-10-16T05:58:52;2.93;;;2.30;;
13592;SDS011;6867;50.998;4.250;2022-10-16T06:01:19;4.57;;;2.03;;
13592;SDS011;6867;50.998;4.250;2022-10-16T06:03:49;6.13;;;2.67;;
13592;SDS011;6867;50.998;4.250;2022-10-16T06:06:17;3.70;;;2.60;;
13592;SDS011;6867;50.998;4.250;2022-10-16T06:08:46;5.73;;;2.20;;
13592;SDS011;6867;50.998;4.250;2022-10-16T06:11:14;4.37;;;2.47;;
13592;SDS011;6867;50.998;4.250;2022-10-16T06:13:42;4.53;;;2.27;;
13592;SDS011;6867;50.998;4.250;2022-10-16T06:16:12;3.97;;;2.47;;
13592;SDS011;6867;50.998;4.250;2022-10-16T06:18:39;3.57;;;2.60;;
13592;SDS011;6867;50.998;4.250;2022-10-16T06:21:09;4.97;;;2.30;;
13592;SDS011;6867;50.998;4.250;2022-10-16T06:23:37;4.53;;;2.37;;
13592;SDS011;6867;50.998;4.250;2022-10-16T06:26:04;5.93;;;2.50;;
13592;SDS011;6867;50.998;4.250;2022-10-16T06:28:32;5.97;;;2.40;;
13592;SDS011;6867;50.998;4.250;2022-10-16T06:30:59;5.20;;;2.90;;
13592;SDS011;6867;50.998;4.250;2022-10-16T06:33:27;5.33;;;2.20;;
13592;SDS011;6867;50.998;4.250;2022-10-16T06:35:54;3.53;;;2.53;;
13592;SDS011;6867;50.998;4.250;2022-10-16T06:38:26;4.60;;;2.50;;
13592;SDS011;6867;50.998;4.250;2022-10-16T06:40:53;3.57;;;2.43;;
13592;SDS011;6867;50.998;4.250;2022-10-16T06:43:20;3.60;;;2.40;;
13592;SDS011;6867;50.998;4.250;2022-10-16T06:45:50;6.40;;;2.47;;
13592;SDS011;6867;50.998;4.250;2022-10-16T06:48:17;2.77;;;2.30;;
13592;SDS011;6867;50.998;4.250;2022-10-16T06:50:45;5.33;;;2.37;;
13592;SDS011;6867;50.998;4.250;2022-10-16T06:53:21;6.30;;;2.63;;
13592;SDS011;6867;50.998;4.250;2022-10-16T06:55:48;4.80;;;2.33;;
13592;SDS011;6867;50.998;4.250;2022-10-16T06:58:14;3.30;;;2.27;;
13592;SDS011;6867;50.998;4.250;2022-10-16T07:00:41;10.53;;;2.33;;
13592;SDS011;6867;50.998;4.250;2022-10-16T07:03:08;6.57;;;2.40;;
13592;SDS011;6867;50.998;4.250;2022-10-16T07:05:36;4.70;;;2.37;;
13592;SDS011;6867;50.998;4.250;2022-10-16T07:08:05;5.57;;;2.10;;
13592;SDS011;6867;50.998;4.250;2022-10-16T07:10:32;4.50;;;2.60;;
13592;SDS011;6867;50.998;4.250;2022-10-16T07:12:59;4.67;;;2.80;;
13592;SDS011;6867;50.998;4.250;2022-10-16T07:15:26;4.73;;;2.60;;
13592;SDS011;6867;50.998;4.250;2022-10-16T07:17:53;4.03;;;2.20;;
13592;SDS011;6867;50.998;4.250;2022-10-16T07:20:23;5.10;;;2.30;;
13592;SDS011;6867;50.998;4.250;2022-10-16T07:22:50;3.27;;;2.37;;
13592;SDS011;6867;50.998;4.250;2022-10-16T07:25:18;6.82;;;2.30;;
13592;SDS011;6867;50.998;4.250;2022-10-16T07:27:45;5.60;;;2.57;;
13592;SDS011;6867;50.998;4.250;2022-10-16T07:30:11;4.03;;;2.30;;
13592;SDS011;6867;50.998;4.250;2022-10-16T07:32:38;4.27;;;2.03;;
13592;SDS011;6867;50.998;4.250;2022-10-16T07:35:05;6.18;;;2.65;;
13592;SDS011;6867;50.998;4.250;2022-10-16T07:37:33;5.40;;;2.43;;
13592;SDS011;6867;50.998;4.250;2022-10-16T07:39:59;2.65;;;1.90;;
13592;SDS011;6867;50.998;4.250;2022-10-16T07:42:28;3.60;;;1.90;;
13592;SDS011;6867;50.998;4.250;2022-10-16T07:44:55;2.67;;;2.08;;
13592;SDS011;6867;50.998;4.250;2022-10-16T07:47:21;3.25;;;2.10;;
13592;SDS011;6867;50.998;4.250;2022-10-16T07:49:48;4.20;;;2.28;;
13592;SDS011;6867;50.998;4.250;2022-10-16T07:52:15;4.40;;;2.15;;
13592;SDS011;6867;50.998;4.250;2022-10-16T07:54:42;4.45;;;2.08;;
13592;SDS011;6867;50.998;4.250;2022-10-16T07:57:08;3.53;;;2.10;;
13592;SDS011;6867;50.998;4.250;2022-10-16T07:59:36;5.30;;;2.20;;
13592;SDS011;6867;50.998;4.250;2022-10-16T08:02:03;6.03;;;2.30;;
13592;SDS011;6867;50.998;4.250;2022-10-16T08:04:30;3.45;;;2.25;;
13592;SDS011;6867;50.998;4.250;2022-10-16T08:06:56;5.65;;;2.00;;
13592;SDS011;6867;50.998;4.250;2022-10-16T08:09:23;3.47;;;1.88;;
13592;SDS011;6867;50.998;4.250;2022-10-16T08:11:50;2.05;;;1.80;;
13592;SDS011;6867;50.998;4.250;2022-10-16T08:14:17;7.43;;;1.80;;
13592;SDS011;6867;50.998;4.250;2022-10-16T08:16:45;2.67;;;1.50;;
13592;SDS011;6867;50.998;4.250;2022-10-16T08:19:12;2.95;;;1.85;;
13592;SDS011;6867;50.998;4.250;2022-10-16T08:21:40;5.55;;;1.90;;
13592;SDS011;6867;50.998;4.250;2022-10-16T08:24:07;2.85;;;1.90;;
13592;SDS011;6867;50.998;4.250;2022-10-16T08:26:35;5.80;;;1.77;;
13592;SDS011;6867;50.998;4.250;2022-10-16T08:29:01;4.93;;;1.80;;
13592;SDS011;6867;50.998;4.250;2022-10-16T08:31:28;2.17;;;1.30;;
13592;SDS011;6867;50.998;4.250;2022-10-16T08:33:56;5.45;;;1.83;;
13592;SDS011;6867;50.998;4.250;2022-10-16T08:36:23;3.08;;;1.63;;
13592;SDS011;6867;50.998;4.250;2022-10-16T08:38:49;2.55;;;1.38;;
13592;SDS011;6867;50.998;4.250;2022-10-16T08:44:37;3.42;;;1.45;;
13592;SDS011;6867;50.998;4.250;2022-10-16T08:47:20;3.28;;;1.67;;
13592;SDS011;6867;50.998;4.250;2022-10-16T08:49:55;4.20;;;1.42;;
13592;SDS011;6867;50.998;4.250;2022-10-16T08:52:25;3.25;;;1.48;;
13592;SDS011;6867;50.998;4.250;2022-10-16T08:54:56;5.68;;;1.60;;
13592;SDS011;6867;50.998;4.250;2022-10-16T08:57:24;3.40;;;1.30;;
13592;SDS011;6867;50.998;4.250;2022-10-16T08:59:51;7.07;;;1.33;;
13592;SDS011;6867;50.998;4.250;2022-10-16T09:02:23;4.32;;;1.65;;
13592;SDS011;6867;50.998;4.250;2022-10-16T09:04:55;2.63;;;1.48;;
13592;SDS011;6867;50.998;4.250;2022-10-16T09:07:30;3.35;;;1.20;;
13592;SDS011;6867;50.998;4.250;2022-10-16T09:10:08;4.38;;;1.40;;
13592;SDS011;6867;50.998;4.250;2022-10-16T09:12:46;7.18;;;1.40;;
13592;SDS011;6867;50.998;4.250;2022-10-16T09:15:22;2.88;;;1.38;;
13592;SDS011;6867;50.998;4.250;2022-10-16T09:17:56;4.82;;;1.27;;
13592;SDS011;6867;50.998;4.250;2022-10-16T09:20:34;5.68;;;1.50;;
13592;SDS011;6867;50.998;4.250;2022-10-16T09:23:15;4.03;;;1.60;;
13592;SDS011;6867;50.998;4.250;2022-10-16T09:25:44;4.38;;;1.33;;
13592;SDS011;6867;50.998;4.250;2022-10-16T09:28:14;8.05;;;1.75;;
13592;SDS011;6867;50.998;4.250;2022-10-16T09:30:41;2.63;;;1.27;;
13592;SDS011;6867;50.998;4.250;2022-10-16T09:33:09;4.13;;;1.60;;
13592;SDS011;6867;50.998;4.250;2022-10-16T09:35:40;6.40;;;1.20;;
13592;SDS011;6867;50.998;4.250;2022-10-16T09:38:08;2.50;;;1.50;;
13592;SDS011;6867;50.998;4.250;2022-10-16T09:40:35;3.30;;;1.63;;
13592;SDS011;6867;50.998;4.250;2022-10-16T09:43:21;2.00;;;1.00;;
13592;SDS011;6867;50.998;4.250;2022-10-16T09:45:56;8.35;;;1.33;;
13592;SDS011;6867;50.998;4.250;2022-10-16T09:48:25;2.20;;;1.10;;
13592;SDS011;6867;50.998;4.250;2022-10-16T09:50:56;4.93;;;1.35;;
13592;SDS011;6867;50.998;4.250;2022-10-16T09:53:38;4.10;;;1.48;;
13592;SDS011;6867;50.998;4.250;2022-10-16T09:56:09;2.00;;;1.10;;
13592;SDS011;6867;50.998;4.250;2022-10-16T09:58:41;2.47;;;1.30;;
13592;SDS011;6867;50.998;4.250;2022-10-16T10:01:11;3.83;;;1.27;;
13592;SDS011;6867;50.998;4.250;2022-10-16T10:03:41;5.28;;;1.38;;
13592;SDS011;6867;50.998;4.250;2022-10-16T10:06:20;5.78;;;1.30;;
13592;SDS011;6867;50.998;4.250;2022-10-16T10:08:53;8.30;;;2.08;;
13592;SDS011;6867;50.998;4.250;2022-10-16T10:14:23;7.90;;;1.42;;
13592;SDS011;6867;50.998;4.250;2022-10-16T10:16:52;4.03;;;1.17;;
13592;SDS011;6867;50.998;4.250;2022-10-16T10:19:37;3.15;;;1.08;;
13592;SDS011;6867;50.998;4.250;2022-10-16T10:22:15;3.90;;;1.13;;
13592;SDS011;6867;50.998;4.250;2022-10-16T10:24:43;5.20;;;1.30;;
13592;SDS011;6867;50.998;4.250;2022-10-16T10:27:12;4.10;;;1.45;;
13592;SDS011;6867;50.998;4.250;2022-10-16T10:29:46;1.83;;;1.30;;
13592;SDS011;6867;50.998;4.250;2022-10-16T10:32:22;2.25;;;1.23;;
13592;SDS011;6867;50.998;4.250;2022-10-16T10:35:02;4.80;;;1.40;;
13592;SDS011;6867;50.998;4.250;2022-10-16T10:37:58;3.95;;;1.45;;
13592;SDS011;6867;50.998;4.250;2022-10-16T10:40:39;6.38;;;1.50;;
13592;SDS011;6867;50.998;4.250;2022-10-16T10:43:17;4.57;;;1.17;;
13592;SDS011;6867;50.998;4.250;2022-10-16T10:45:57;3.65;;;1.10;;
13592;SDS011;6867;50.998;4.250;2022-10-16T10:48:34;3.33;;;1.20;;
13592;SDS011;6867;50.998;4.250;2022-10-16T10:51:18;3.10;;;1.25;;
13592;SDS011;6867;50.998;4.250;2022-10-16T10:53:55;4.55;;;1.75;;
13592;SDS011;6867;50.998;4.250;2022-10-16T10:56:36;5.45;;;1.10;;
13592;SDS011;6867;50.998;4.250;2022-10-16T10:59:14;2.97;;;1.10;;
13592;SDS011;6867;50.998;4.250;2022-10-16T11:01:54;4.90;;;1.20;;
13592;SDS011;6867;50.998;4.250;2022-10-16T11:04:40;3.28;;;1.10;;
13592;SDS011;6867;50.998;4.250;2022-10-16T11:07:21;2.20;;;1.10;;
13592;SDS011;6867;50.998;4.250;2022-10-16T11:09:55;4.80;;;1.33;;
13592;SDS011;6867;50.998;4.250;2022-10-16T11:12:27;4.50;;;1.23;;
13592;SDS011;6867;50.998;4.250;2022-10-16T11:14:58;3.35;;;1.10;;
13592;SDS011;6867;50.998;4.250;2022-10-16T11:17:31;2.33;;;1.35;;
13592;SDS011;6867;50.998;4.250;2022-10-16T11:20:03;5.38;;;1.30;;
13592;SDS011;6867;50.998;4.250;2022-10-16T11:22:38;2.10;;;0.80;;
13592;SDS011;6867;50.998;4.250;2022-10-16T11:25:13;2.42;;;1.20;;
13592;SDS011;6867;50.998;4.250;2022-10-16T11:27:43;4.15;;;1.58;;
13592;SDS011;6867;50.998;4.250;2022-10-16T11:30:16;1.27;;;1.02;;
13592;SDS011;6867;50.998;4.250;2022-10-16T11:32:52;1.52;;;0.93;;
13592;SDS011;6867;50.998;4.250;2022-10-16T11:35:30;3.90;;;0.85;;
13592;SDS011;6867;50.998;4.250;2022-10-16T11:38:07;5.28;;;1.23;;
13592;SDS011;6867;50.998;4.250;2022-10-16T11:40:41;5.35;;;1.30;;
13592;SDS011;6867;50.998;4.250;2022-10-16T11:43:11;4.82;;;1.33;;
13592;SDS011;6867;50.998;4.250;2022-10-16T11:45:43;3.47;;;1.00;;
13592;SDS011;6867;50.998;4.250;2022-10-16T11:48:15;4.55;;;1.17;;
13592;SDS011;6867;50.998;4.250;2022-10-16T11:50:50;3.17;;;1.15;;
13592;SDS011;6867;50.998;4.250;2022-10-16T11:53:21;4.45;;;1.05;;
13592;SDS011;6867;50.998;4.250;2022-10-16T11:55:59;3.38;;;0.98;;
13592;SDS011;6867;50.998;4.250;2022-10-16T11:58:26;2.50;;;0.77;;
13592;SDS011;6867;50.998;4.250;2022-10-16T12:00:59;1.90;;;1.00;;
13592;SDS011;6867;50.998;4.250;2022-10-16T12:03:33;3.00;;;1.13;;
13592;SDS011;6867;50.998;4.250;2022-10-16T12:06:13;2.38;;;0.80;;
13592;SDS011;6867;50.998;4.250;2022-10-16T12:08:49;2.75;;;1.02;;
13592;SDS011;6867;50.998;4.250;2022-10-16T12:11:31;2.55;;;0.90;;
13592;SDS011;6867;50.998;4.250;2022-10-16T12:14:03;1.88;;;0.98;;
13592;SDS011;6867;50.998;4.250;2022-10-16T12:16:32;1.33;;;0.77;;
13592;SDS011;6867;50.998;4.250;2022-10-16T12:19:09;3.15;;;1.08;;
13592;SDS011;6867;50.998;4.250;2022-10-16T12:21:38;3.35;;;0.90;;
13592;SDS011;6867;50.998;4.250;2022-10-16T12:24:05;1.38;;;0.90;;
13592;SDS011;6867;50.998;4.250;2022-10-16T12:26:34;1.63;;;0.85;;
13592;SDS011;6867;50.998;4.250;2022-10-16T12:29:12;2.67;;;1.27;;
13592;SDS011;6867;50.998;4.250;2022-10-16T12:31:46;5.72;;;0.95;;
13592;SDS011;6867;50.998;4.250;2022-10-16T12:34:25;1.63;;;0.70;;
13592;SDS011;6867;50.998;4.250;2022-10-16T12:36:54;6.32;;;1.10;;
13592;SDS011;6867;50.998;4.250;2022-10-16T12:39:23;2.63;;;1.05;;
13592;SDS011;6867;50.998;4.250;2022-10-16T12:42:01;2.38;;;1.05;;
13592;SDS011;6867;50.998;4.250;2022-10-16T12:44:31;3.10;;;1.23;;
13592;SDS011;6867;50.998;4.250;2022-10-16T12:47:00;3.53;;;1.08;;
13592;SDS011;6867;50.998;4.250;2022-10-16T12:49:32;1.60;;;0.80;;
13592;SDS011;6867;50.998;4.250;2022-10-16T12:52:02;3.83;;;1.17;;
13592;SDS011;6867;50.998;4.250;2022-10-16T12:54:30;4.28;;;0.90;;
13592;SDS011;6867;50.998;4.250;2022-10-16T12:57:08;4.43;;;0.85;;
13592;SDS011;6867;50.998;4.250;2022-10-16T12:59:47;5.55;;;1.10;;
13592;SDS011;6867;50.998;4.250;2022-10-16T13:05:36;3.33;;;0.80;;
13592;SDS011;6867;50.998;4.250;2022-10-16T13:08:15;0.93;;;0.63;;
13592;SDS011;6867;50.998;4.250;2022-10-16T13:10:53;3.17;;;0.80;;
13592;SDS011;6867;50.998;4.250;2022-10-16T13:13:36;2.38;;;0.82;;
13592;SDS011;6867;50.998;4.250;2022-10-16T13:16:16;2.72;;;0.60;;
13592;SDS011;6867;50.998;4.250;2022-10-16T13:18:53;1.33;;;0.70;;
13592;SDS011;6867;50.998;4.250;2022-10-16T13:21:33;3.50;;;0.70;;
13592;SDS011;6867;50.998;4.250;2022-10-16T13:24:08;1.15;;;0.63;;
13592;SDS011;6867;50.998;4.250;2022-10-16T13:26:44;1.70;;;0.88;;
13592;SDS011;6867;50.998;4.250;2022-10-16T13:29:20;3.38;;;0.85;;
13592;SDS011;6867;50.998;4.250;2022-10-16T13:31:48;4.85;;;0.90;;
13592;SDS011;6867;50.998;4.250;2022-10-16T13:34:16;1.85;;;0.98;;
13592;SDS011;6867;50.998;4.250;2022-10-16T13:36:45;1.55;;;0.80;;
13592;SDS011;6867;50.998;4.250;2022-10-16T13:39:16;2.45;;;0.93;;
13592;SDS011;6867;50.998;4.250;2022-10-16T13:41:57;3.65;;;0.85;;
13592;SDS011;6867;50.998;4.250;2022-10-16T13:44:29;0.90;;;0.77;;
13592;SDS011;6867;50.998;4.250;2022-10-16T13:47:01;2.80;;;1.10;;
13592;SDS011;6867;50.998;4.250;2022-10-16T13:49:28;2.20;;;1.10;;
13592;SDS011;6867;50.998;4.250;2022-10-16T13:51:55;2.75;;;0.82;;
13592;SDS011;6867;50.998;4.250;2022-10-16T13:54:25;2.08;;;1.00;;
13592;SDS011;6867;50.998;4.250;2022-10-16T13:56:53;1.25;;;0.70;;
13592;SDS011;6867;50.998;4.250;2022-10-16T13:59:24;1.02;;;0.80;;
13592;SDS011;6867;50.998;4.250;2022-10-16T14:01:53;3.08;;;1.35;;
13592;SDS011;6867;50.998;4.250;2022-10-16T14:04:22;1.85;;;0.63;;
13592;SDS011;6867;50.998;4.250;2022-10-16T14:06:51;2.25;;;0.90;;
13592;SDS011;6867;50.998;4.250;2022-10-16T14:09:20;3.72;;;0.82;;
13592;SDS011;6867;50.998;4.250;2022-10-16T14:11:51;2.10;;;1.13;;
13592;SDS011;6867;50.998;4.250;2022-10-16T14:14:21;1.50;;;0.88;;
13592;SDS011;6867;50.998;4.250;2022-10-16T14:16:49;2.15;;;0.80;;
13592;SDS011;6867;50.998;4.250;2022-10-16T14:19:20;2.83;;;1.17;;
13592;SDS011;6867;50.998;4.250;2022-10-16T14:21:49;3.55;;;1.38;;
13592;SDS011;6867;50.998;4.250;2022-10-16T14:24:23;2.50;;;0.82;;
13592;SDS011;6867;50.998;4.250;2022-10-16T14:26:53;1.83;;;0.73;;
13592;SDS011;6867;50.998;4.250;2022-10-16T14:29:21;2.63;;;0.85;;
13592;SDS011;6867;50.998;4.250;2022-10-16T14:31:56;2.75;;;1.00;;
13592;SDS011;6867;50.998;4.250;2022-10-16T14:34:29;1.67;;;0.90;;
13592;SDS011;6867;50.998;4.250;2022-10-16T14:36:58;1.98;;;0.90;;
13592;SDS011;6867;50.998;4.250;2022-10-16T14:39:29;1.85;;;1.10;;
13592;SDS011;6867;50.998;4.250;2022-10-16T14:41:56;4.18;;;1.23;;
13592;SDS011;6867;50.998;4.250;2022-10-16T14:44:27;1.55;;;0.90;;
13592;SDS011;6867;50.998;4.250;2022-10-16T14:46:57;1.80;;;0.95;;
13592;SDS011;6867;50.998;4.250;2022-10-16T14:49:24;1.92;;;1.00;;
13592;SDS011;6867;50.998;4.250;2022-10-16T14:51:54;2.15;;;0.90;;
13592;SDS011;6867;50.998;4.250;2022-10-16T14:54:21;4.47;;;1.10;;
13592;SDS011;6867;50.998;4.250;2022-10-16T14:56:49;2.88;;;1.20;;
13592;SDS011;6867;50.998;4.250;2022-10-16T14:59:19;0.80;;;0.80;;
13592;SDS011;6867;50.998;4.250;2022-10-16T15:01:50;2.00;;;0.80;;
13592;SDS011;6867;50.998;4.250;2022-10-16T15:04:17;4.93;;;0.82;;
13592;SDS011;6867;50.998;4.250;2022-10-16T15:06:44;1.27;;;0.98;;
13592;SDS011;6867;50.998;4.250;2022-10-16T15:09:12;4.18;;;0.82;;
13592;SDS011;6867;50.998;4.250;2022-10-16T15:11:39;2.78;;;1.05;;
13592;SDS011;6867;50.998;4.250;2022-10-16T15:14:06;3.92;;;1.02;;
13592;SDS011;6867;50.998;4.250;2022-10-16T15:16:34;1.63;;;0.90;;
13592;SDS011;6867;50.998;4.250;2022-10-16T15:19:01;1.88;;;1.00;;
13592;SDS011;6867;50.998;4.250;2022-10-16T15:21:28;1.73;;;1.13;;
13592;SDS011;6867;50.998;4.250;2022-10-16T15:23:57;4.55;;;0.95;;
13592;SDS011;6867;50.998;4.250;2022-10-16T15:26:26;3.25;;;1.02;;
13592;SDS011;6867;50.998;4.250;2022-10-16T15:28:55;5.35;;;0.88;;
13592;SDS011;6867;50.998;4.250;2022-10-16T15:31:22;1.63;;;1.02;;